Time;durP1;ratioP1;P1;durP2;ratioP2;P2;SDS_P1;SDS_P2;PMS_P1;PMS_P2;Temp;Humidity;BMP_temperature;BMP_pressure;BME280_temperature;BME280_humidity;BME280_pressure;Samples;Min_cycle;Max_cycle;Signal;HPM_P1;HPM_P2
2022/01/18 00:02:55;;;;;;;68.40;62.57;;;;;;;0.85;100.00;104119.91;1991231;71;32780;-68
2022/01/18 00:08:41;;;;;;;67.47;61.27;;;;;;;0.85;100.00;104112.56;2005340;71;33302;-73
2022/01/18 00:14:28;;;;;;;66.77;61.00;;;;;;;0.91;100.00;104111.98;2003687;71;33334;-73
2022/01/18 00:20:18;;;;;;;72.47;65.90;;;;;;;0.60;100.00;104119.05;2009681;71;32776;-68
2022/01/18 00:25:59;;;;;;;66.93;61.03;;;;;;;0.48;100.00;104118.77;2009604;71;32796;-69
2022/01/18 00:37:53;;;;;;;64.03;58.07;;;;;;;0.72;100.00;104120.17;2005701;71;32815;-67
2022/01/18 00:43:36;;;;;;;62.67;57.13;;;;;;;0.80;100.00;104113.98;2010967;71;32971;-73
2022/01/18 00:49:20;;;;;;;65.50;59.27;;;;;;;0.77;100.00;104112.38;2011045;71;33264;-74
2022/01/18 00:55:06;;;;;;;64.23;58.73;;;;;;;0.79;100.00;104111.75;2000387;71;32756;-68
2022/01/18 01:00:51;;;;;;;66.00;59.57;;;;;;;0.70;100.00;104102.14;2000693;71;33275;-74
2022/01/18 01:06:37;;;;;;;63.57;57.67;;;;;;;0.63;100.00;104107.83;1994990;71;33314;-67
2022/01/18 01:12:25;;;;;;;66.20;59.80;;;;;;;0.71;100.00;104092.44;2000126;71;33210;-73
2022/01/18 01:18:19;;;;;;;64.07;57.90;;;;;;;0.56;100.00;104094.36;2004514;71;32804;-80
2022/01/18 01:36:18;;;;;;;65.70;59.70;;;;;;;0.52;100.00;104076.47;2006001;71;32791;-73
2022/01/18 01:42:12;;;;;;;68.63;61.67;;;;;;;0.71;100.00;104076.02;2003684;71;32816;-73
2022/01/18 01:47:54;;;;;;;68.47;60.70;;;;;;;0.55;100.00;104059.30;2007324;71;32916;-68
2022/01/18 01:53:40;;;;;;;71.37;60.50;;;;;;;0.78;100.00;104067.59;2016679;71;33306;-68
2022/01/18 01:59:24;;;;;;;69.30;60.10;;;;;;;0.45;100.00;104062.00;2007897;71;32857;-73
2022/01/18 02:05:10;;;;;;;65.93;58.73;;;;;;;0.52;100.00;104064.16;1979867;72;33063;-67
2022/01/18 02:10:54;;;;;;;68.80;61.17;;;;;;;0.44;100.00;104063.50;1991299;71;32837;-73
2022/01/18 02:22:42;;;;;;;65.80;59.20;;;;;;;0.31;100.00;104065.12;2013051;71;32806;-73
2022/01/18 02:28:28;;;;;;;67.03;59.03;;;;;;;0.36;100.00;104066.94;2014736;70;32806;-67
2022/01/18 02:34:15;;;;;;;69.40;58.13;;;;;;;0.45;100.00;104063.37;2004033;71;32900;-67
2022/01/18 02:39:59;;;;;;;69.80;58.50;;;;;;;0.53;100.00;104074.97;2012968;71;32847;-73
2022/01/18 02:45:44;;;;;;;61.73;55.73;;;;;;;0.49;100.00;104069.91;2009334;71;32860;-73
2022/01/18 02:51:29;;;;;;;67.27;56.23;;;;;;;0.48;100.00;104058.61;2016434;71;33348;-68
2022/01/18 02:57:25;;;;;;;63.17;56.00;;;;;;;0.49;100.00;104065.81;2011580;71;32807;-76
2022/01/18 03:03:15;;;;;;;64.03;57.43;;;;;;;0.77;100.00;104065.86;2014602;71;33307;-67
2022/01/18 03:09:00;;;;;;;66.03;58.20;;;;;;;0.81;100.00;104056.89;2014699;71;32804;-73
2022/01/18 03:14:44;;;;;;;63.23;56.63;;;;;;;0.59;100.00;104059.88;2007865;71;33187;-73
2022/01/18 03:20:30;;;;;;;62.13;55.47;;;;;;;0.61;100.00;104065.55;2016945;71;32782;-81
2022/01/18 03:26:16;;;;;;;61.80;55.87;;;;;;;0.51;100.00;104066.55;2016359;71;32809;-73
2022/01/18 03:32:01;;;;;;;62.93;57.10;;;;;;;0.48;100.00;104054.50;2011562;71;33303;-73
2022/01/18 03:37:45;;;;;;;67.17;60.20;;;;;;;0.78;100.00;104058.52;2009449;71;32797;-67
2022/01/18 03:43:29;;;;;;;64.17;57.50;;;;;;;0.52;100.00;104058.19;2007155;71;32809;-73
2022/01/18 03:49:14;;;;;;;67.57;59.73;;;;;;;0.40;100.00;104061.55;2000469;70;32844;-73
2022/01/18 03:54:59;;;;;;;60.30;54.80;;;;;;;0.32;100.00;104054.55;2011243;71;32802;-67
2022/01/18 04:00:43;;;;;;;61.60;55.47;;;;;;;0.54;100.00;104061.66;2013276;71;32755;-69
2022/01/18 04:06:27;;;;;;;64.53;57.93;;;;;;;0.59;100.00;104050.30;1999933;71;32874;-68
2022/01/18 04:12:12;;;;;;;69.13;58.43;;;;;;;0.67;100.00;104056.80;2003828;71;32847;-73
2022/01/18 04:18:22;;;;;;;80.83;58.50;;;;;;;0.34;100.00;104049.79;1998260;71;32844;-67
2022/01/18 04:30:04;;;;;;;59.50;53.37;;;;;;;0.18;100.00;104033.55;2016580;71;32905;-74
2022/01/18 04:35:48;;;;;;;70.73;58.67;;;;;;;0.19;100.00;104027.09;2018253;71;32797;-72
2022/01/18 04:41:34;;;;;;;67.57;58.83;;;;;;;-0.02;100.00;104023.94;2007952;71;33207;-73
2022/01/18 04:53:21;;;;;;;59.57;53.80;;;;;;;0.31;100.00;104019.13;2010854;71;32790;-74
2022/01/18 04:59:08;;;;;;;64.37;58.37;;;;;;;0.67;100.00;104020.36;1996886;71;32745;-74
2022/01/18 05:04:53;;;;;;;66.73;57.47;;;;;;;0.10;100.00;104015.63;2016531;71;33401;-73
2022/01/18 05:10:38;;;;;;;62.73;56.33;;;;;;;0.07;100.00;104008.58;2011028;71;32947;-67
2022/01/18 05:16:45;;;;;;;62.03;55.90;;;;;;;0.21;100.00;103993.16;2002217;71;32742;-68
2022/01/18 05:28:19;;;;;;;64.03;57.20;;;;;;;0.40;100.00;103996.41;2009652;71;33302;-74
2022/01/18 05:34:03;;;;;;;67.17;60.03;;;;;;;0.14;100.00;104004.77;2000180;71;33245;-73
2022/01/18 05:39:47;;;;;;;62.33;55.80;;;;;;;0.01;100.00;103995.45;2016410;71;32809;-68
2022/01/18 05:45:31;;;;;;;72.00;58.87;;;;;;;0.20;100.00;104000.13;2011501;71;33303;-67
2022/01/18 05:51:19;;;;;;;65.50;58.47;;;;;;;0.16;100.00;104000.91;2016288;71;32865;-68
2022/01/18 05:57:05;;;;;;;63.03;56.70;;;;;;;0.35;100.00;103994.11;2000467;71;32740;-67
2022/01/18 06:03:00;;;;;;;84.33;56.83;;;;;;;0.13;100.00;103990.77;2001903;71;32806;-67
2022/01/18 06:08:36;;;;;;;59.53;53.50;;;;;;;0.49;100.00;103994.20;2018263;71;33372;-68
2022/01/18 06:14:20;;;;;;;69.13;56.17;;;;;;;0.48;100.00;103993.84;2011838;71;33327;-67
2022/01/18 06:20:05;;;;;;;59.80;53.97;;;;;;;0.63;100.00;103994.30;2014732;71;32809;-74
2022/01/18 06:25:49;;;;;;;99.27;58.90;;;;;;;0.33;100.00;103989.80;1994879;71;32904;-67
2022/01/18 06:31:34;;;;;;;88.10;54.57;;;;;;;0.18;100.00;103995.28;1994878;71;32837;-67
2022/01/18 06:37:19;;;;;;;81.43;55.37;;;;;;;0.08;100.00;103995.28;2009045;71;32973;-67
2022/01/18 06:43:03;;;;;;;78.50;54.40;;;;;;;0.08;100.00;103996.65;2016393;71;33340;-73
2022/01/18 06:48:48;;;;;;;74.73;55.60;;;;;;;0.01;100.00;104002.28;2002571;71;32896;-68
2022/01/18 06:54:32;;;;;;;67.03;54.30;;;;;;;-0.07;100.00;104004.34;2011035;71;32904;-73
2022/01/18 07:00:19;;;;;;;143.13;60.10;;;;;;;0.36;100.00;104004.05;2003924;71;32906;-68
2022/01/18 07:06:03;;;;;;;68.63;54.33;;;;;;;-0.09;100.00;104017.30;2018225;71;33309;-73
2022/01/18 07:11:47;;;;;;;105.60;57.33;;;;;;;0.07;100.00;104018.64;2009665;71;33463;-68
2022/01/18 07:17:32;;;;;;;72.40;51.37;;;;;;;0.12;100.00;104021.33;2013166;71;32809;-68
2022/01/18 07:23:16;;;;;;;74.33;51.90;;;;;;;0.21;100.00;104032.80;2000209;71;33287;-73
2022/01/18 07:29:01;;;;;;;69.87;54.47;;;;;;;0.19;100.00;104034.80;2012907;71;32911;-73
2022/01/18 07:34:53;;;;;;;57.63;49.47;;;;;;;0.23;100.00;104036.74;2011427;71;32912;-73
2022/01/18 07:40:39;;;;;;;56.77;50.87;;;;;;;0.14;100.00;104037.57;2007424;71;32842;-69
2022/01/18 07:46:23;;;;;;;119.37;61.20;;;;;;;0.06;100.00;104036.91;2014594;71;32899;-68
2022/01/18 07:52:08;;;;;;;69.60;53.63;;;;;;;-0.18;100.00;104033.15;2018323;71;33333;-70
2022/01/18 07:57:53;;;;;;;88.27;58.03;;;;;;;-0.23;100.00;104035.42;2005321;71;33351;-68
2022/01/18 08:03:38;;;;;;;77.00;52.97;;;;;;;-0.24;100.00;104038.28;1994769;71;32789;-67
2022/01/18 08:09:24;;;;;;;78.13;53.97;;;;;;;-0.28;100.00;104039.05;1999730;71;32915;-72
2022/01/18 08:15:16;;;;;;;71.53;51.10;;;;;;;-0.24;100.00;104047.84;2016335;71;33281;-70
2022/01/18 08:21:02;;;;;;;75.20;52.73;;;;;;;-0.17;100.00;104051.78;2007374;71;32993;-76
2022/01/18 08:26:46;;;;;;;54.73;48.93;;;;;;;-0.08;100.00;104062.73;2005434;71;33440;-69
2022/01/18 08:32:30;;;;;;;91.30;54.77;;;;;;;-0.05;100.00;104063.84;2012830;71;32809;-76
2022/01/18 08:38:14;;;;;;;110.57;62.30;;;;;;;0.18;100.00;104060.89;1996714;70;32764;-75
2022/01/18 08:43:58;;;;;;;62.13;55.53;;;;;;;-0.03;100.00;104065.92;2016544;71;33268;-71
2022/01/18 08:49:43;;;;;;;60.50;54.10;;;;;;;-0.01;100.00;104072.62;2006050;71;32735;-75
2022/01/18 08:55:29;;;;;;;63.50;52.10;;;;;;;0.06;100.00;104075.17;2010995;71;32805;-71
2022/01/18 09:01:15;;;;;;;62.67;57.17;;;;;;;0.07;100.00;104076.91;1994437;71;32908;-71
2022/01/18 09:07:04;;;;;;;63.93;57.83;;;;;;;0.15;100.00;104073.48;2014360;71;32941;-71
2022/01/18 09:12:46;;;;;;;62.10;55.87;;;;;;;-0.12;100.00;104090.45;2016437;71;32935;-70
2022/01/18 09:18:30;;;;;;;61.50;55.60;;;;;;;-0.22;100.00;104086.83;1998818;70;32900;-69
2022/01/18 09:24:15;;;;;;;65.37;59.27;;;;;;;0.00;100.00;104083.41;2014804;70;33340;-76
2022/01/18 09:30:00;;;;;;;60.40;54.73;;;;;;;-0.07;100.00;104074.03;2003636;71;32890;-69
2022/01/18 09:35:46;;;;;;;60.93;55.13;;;;;;;0.49;100.00;104087.20;2005863;71;32901;-70
2022/01/18 09:41:32;;;;;;;64.60;58.00;;;;;;;0.56;100.00;104088.89;2014846;71;33304;-78
2022/01/18 09:47:17;;;;;;;63.73;57.43;;;;;;;0.51;100.00;104090.67;2007657;71;32923;-71
2022/01/18 09:53:02;;;;;;;66.60;60.03;;;;;;;0.73;100.00;104094.52;1991932;71;32792;-79
2022/01/18 09:58:48;;;;;;;64.63;58.37;;;;;;;0.99;100.00;104098.95;2011545;71;33316;-71
2022/01/18 10:04:40;;;;;;;67.63;61.73;;;;;;;1.08;100.00;104087.64;2016790;71;32929;-79
2022/01/18 10:10:36;;;;;;;74.40;67.67;;;;;;;1.17;100.00;104092.25;2007845;71;32974;-75
2022/01/18 10:16:23;;;;;;;76.30;69.17;;;;;;;1.16;100.00;104090.52;2004230;71;32860;-72
2022/01/18 10:22:12;;;;;;;79.13;71.63;;;;;;;1.46;100.00;104095.84;2002374;70;32743;-71
2022/01/18 10:27:58;;;;;;;85.77;77.10;;;;;;;1.55;100.00;104094.10;2014556;71;33325;-71
2022/01/18 10:33:58;;;;;;;85.57;77.37;;;;;;;1.67;100.00;104086.11;2005970;71;32866;-73
2022/01/18 10:39:35;;;;;;;89.93;81.33;;;;;;;1.72;100.00;104082.39;2000732;71;32797;-80
2022/01/18 10:45:35;;;;;;;85.63;77.13;;;;;;;1.98;100.00;104094.94;2005342;71;32817;-79
2022/01/18 10:51:31;;;;;;;86.07;76.83;;;;;;;2.28;100.00;104069.48;2000860;71;32856;-73
2022/01/18 10:57:22;;;;;;;87.67;78.40;;;;;;;2.39;100.00;104064.83;2000543;70;32844;-80
2022/01/18 11:03:12;;;;;;;88.33;79.03;;;;;;;2.50;100.00;104050.38;1990214;71;32749;-79
2022/01/18 11:08:59;;;;;;;95.03;78.43;;;;;;;2.63;100.00;104056.37;2009891;71;32887;-77
2022/01/18 11:14:47;;;;;;;112.17;81.83;;;;;;;2.66;100.00;104060.67;2001950;71;33356;-79
2022/01/18 11:20:33;;;;;;;101.20;76.30;;;;;;;2.72;100.00;104050.46;2000254;71;33055;-75
2022/01/18 11:26:21;;;;;;;102.63;76.43;;;;;;;2.83;100.00;104054.34;2005233;71;32825;-70
2022/01/18 11:32:07;;;;;;;97.57;76.93;;;;;;;2.99;100.00;104049.54;1995090;71;32867;-70
2022/01/18 11:38:11;;;;;;;92.27;74.67;;;;;;;3.16;100.00;104033.05;2005537;71;32923;-70
2022/01/18 11:44:02;;;;;;;90.87;77.97;;;;;;;3.45;100.00;104036.89;2011551;71;32873;-70
2022/01/18 11:49:50;;;;;;;96.90;86.70;;;;;;;3.75;100.00;104041.55;2013241;71;32763;-75
2022/01/18 11:55:44;;;;;;;96.13;86.10;;;;;;;3.81;100.00;104039.00;2005487;71;32883;-70
2022/01/18 12:01:48;;;;;;;92.90;83.43;;;;;;;3.95;100.00;104044.42;2007789;71;32762;-75
2022/01/18 12:04:57;;;;;;;93.03;83.60;;;;;;;4.02;100.00;104049.64;1958074;72;26625;-75
2022/01/18 12:08:02;;;;;;;95.00;85.57;;;;;;;4.11;100.00;104031.61;1953677;73;26326;-76
2022/01/18 12:14:04;;;;;;;97.00;87.30;;;;;;;4.17;100.00;104013.59;2011354;71;32881;-75
2022/01/18 12:19:49;;;;;;;95.40;85.80;;;;;;;4.39;100.00;104003.35;2014761;71;32810;-75
2022/01/18 12:25:35;;;;;;;97.93;88.03;;;;;;;4.49;100.00;103999.09;2007331;71;32909;-70
2022/01/18 12:38:24;;;;;;;93.23;83.60;;;;;;;4.65;100.00;103988.10;2011881;70;32802;-81
2022/01/18 12:44:22;;;;;;;96.77;86.40;;;;;;;4.61;100.00;103979.84;2009225;71;33422;-74
2022/01/18 12:50:11;;;;;;;91.90;82.70;;;;;;;4.87;100.00;103968.17;2014807;71;33359;-73
2022/01/18 12:56:03;;;;;;;91.43;82.73;;;;;;;5.04;100.00;103963.01;2014751;71;33302;-73
2022/01/18 13:01:52;;;;;;;88.53;79.80;;;;;;;5.26;100.00;103956.45;2003824;71;32906;-73
2022/01/18 13:07:51;;;;;;;92.57;82.87;;;;;;;5.38;100.00;103947.64;2005803;71;32758;-70
2022/01/18 13:13:36;;;;;;;107.53;96.73;;;;;;;5.65;100.00;103944.96;1991240;71;32863;-71
2022/01/18 13:25:24;;;;;;;121.50;109.77;;;;;;;5.72;100.00;103940.48;2016367;71;32951;-70
2022/01/18 13:31:20;;;;;;;119.03;107.50;;;;;;;5.99;100.00;103919.85;1996719;71;32786;-74
2022/01/18 13:37:09;;;;;;;115.83;105.10;;;;;;;5.88;100.00;103914.23;1999883;71;32881;-70
2022/01/18 13:43:03;;;;;;;109.73;99.23;;;;;;;6.01;100.00;103902.61;2011400;71;32846;-70
2022/01/18 13:48:47;;;;;;;108.57;98.13;;;;;;;6.04;100.00;103892.59;2000118;71;33361;-72
2022/01/18 13:54:49;;;;;;;111.37;100.63;;;;;;;6.22;100.00;103884.89;2009622;71;32892;-70
2022/01/18 14:00:34;;;;;;;109.43;98.03;;;;;;;6.20;100.00;103856.63;2009041;71;32900;-76
2022/01/18 14:06:20;;;;;;;107.63;96.30;;;;;;;6.45;100.00;103864.73;1996831;71;33278;-70
2022/01/18 14:12:09;;;;;;;97.13;87.40;;;;;;;6.49;100.00;103860.03;2003656;71;32978;-76
2022/01/18 14:18:03;;;;;;;92.43;83.47;;;;;;;6.56;100.00;103858.23;1994983;71;32963;-70
2022/01/18 14:23:48;;;;;;;87.10;78.83;;;;;;;6.46;100.00;103843.80;2000375;71;32836;-69
2022/01/18 14:29:56;;;;;;;86.57;78.37;;;;;;;6.55;100.00;103833.03;2009264;71;32924;-76
2022/01/18 14:35:51;;;;;;;88.20;79.50;;;;;;;6.12;100.00;103824.91;2009095;71;33376;-70
2022/01/18 14:41:35;;;;;;;82.77;74.93;;;;;;;5.83;100.00;103809.55;2011642;71;33295;-79
2022/01/18 14:47:26;;;;;;;90.47;81.43;;;;;;;6.20;100.00;103811.60;1991416;71;32799;-78
2022/01/18 14:53:11;;;;;;;88.13;79.43;;;;;;;6.32;100.00;103799.94;2003696;71;32884;-68
2022/01/18 14:58:56;;;;;;;86.90;78.50;;;;;;;5.95;100.00;103801.23;2002300;71;32784;-69
2022/01/18 15:04:41;;;;;;;85.00;76.70;;;;;;;6.01;100.00;103795.00;2003839;71;32913;-78
2022/01/18 15:10:27;;;;;;;82.00;73.53;;;;;;;5.93;100.00;103794.53;1991212;71;32768;-78
2022/01/18 15:16:12;;;;;;;80.53;73.17;;;;;;;5.84;100.00;103795.59;1991199;71;32776;-69
2022/01/18 15:21:57;;;;;;;81.00;72.93;;;;;;;5.83;100.00;103788.87;1996791;71;33307;-69
2022/01/18 15:27:41;;;;;;;76.27;68.37;;;;;;;6.07;100.00;103783.23;2010928;71;32920;-76
2022/01/18 15:33:28;;;;;;;80.63;72.77;;;;;;;6.14;100.00;103784.72;2015095;71;33393;-76
2022/01/18 15:39:12;;;;;;;79.80;71.67;;;;;;;6.22;100.00;103779.14;2007808;71;32844;-68
2022/01/18 15:44:57;;;;;;;78.83;70.67;;;;;;;6.31;100.00;103776.13;2016291;71;32902;-68
2022/01/18 15:50:41;;;;;;;76.27;68.23;;;;;;;6.12;100.00;103779.37;2015177;71;32860;-84
2022/01/18 15:56:26;;;;;;;75.90;68.03;;;;;;;6.12;100.00;103777.16;2005962;71;32943;-76
2022/01/18 16:02:11;;;;;;;80.03;71.57;;;;;;;6.28;100.00;103771.50;1998227;71;32824;-67
2022/01/18 16:07:57;;;;;;;81.63;73.17;;;;;;;6.29;100.00;103767.71;2007871;71;33302;-77
2022/01/18 16:13:42;;;;;;;78.13;70.17;;;;;;;6.33;100.00;103767.67;2002187;71;32946;-77
2022/01/18 16:19:27;;;;;;;80.23;72.67;;;;;;;6.10;100.00;103766.30;1998401;71;32824;-70
2022/01/18 16:25:13;;;;;;;80.73;72.60;;;;;;;6.19;100.00;103762.44;1992140;71;33252;-80
2022/01/18 16:30:57;;;;;;;83.90;75.87;;;;;;;6.07;100.00;103765.81;2002834;71;32830;-76
2022/01/18 16:36:42;;;;;;;90.93;81.40;;;;;;;6.22;100.00;103759.30;2006001;71;32841;-77
2022/01/18 16:42:27;;;;;;;86.03;77.63;;;;;;;6.21;100.00;103769.13;2014562;71;32968;-71
2022/01/18 16:48:12;;;;;;;94.03;84.30;;;;;;;6.26;100.00;103767.54;2016708;71;32919;-71
2022/01/18 16:53:57;;;;;;;92.83;84.10;;;;;;;6.34;100.00;103767.47;2007928;71;32744;-75
2022/01/18 16:59:41;;;;;;;95.17;85.70;;;;;;;6.14;100.00;103770.41;1994998;71;32779;-80
2022/01/18 17:05:27;;;;;;;92.30;83.00;;;;;;;6.25;100.00;103772.72;1977445;72;32985;-71
2022/01/18 17:11:13;;;;;;;88.13;79.20;;;;;;;6.35;100.00;103765.05;1991426;71;32829;-69
2022/01/18 17:16:58;;;;;;;93.07;82.90;;;;;;;6.51;100.00;103763.17;2003937;71;33408;-77
2022/01/18 17:22:43;;;;;;;96.97;86.80;;;;;;;6.45;100.00;103762.55;2006013;71;33268;-72
2022/01/18 17:28:27;;;;;;;97.37;87.77;;;;;;;6.26;100.00;103762.02;1998290;71;33385;-70
2022/01/18 17:34:11;;;;;;;93.27;84.37;;;;;;;6.24;100.00;103757.74;2001968;71;33370;-70
2022/01/18 17:39:56;;;;;;;92.17;83.33;;;;;;;6.17;100.00;103757.61;2012774;71;33040;-72
2022/01/18 17:45:42;;;;;;;90.80;81.77;;;;;;;6.05;100.00;103756.33;2002368;71;33233;-71
2022/01/18 17:51:27;;;;;;;89.83;80.87;;;;;;;6.18;100.00;103741.39;2013559;71;33184;-78
2022/01/18 17:57:11;;;;;;;89.70;80.63;;;;;;;6.16;100.00;103732.97;1991289;71;32792;-75
2022/01/18 18:02:56;;;;;;;90.73;82.13;;;;;;;6.05;100.00;103728.73;1977579;70;108112;-76
2022/01/18 18:08:41;;;;;;;85.90;77.60;;;;;;;5.97;100.00;103719.14;2013158;71;32830;-75
2022/01/18 18:14:25;;;;;;;87.03;78.23;;;;;;;6.06;100.00;103725.45;1991269;71;32770;-73
2022/01/18 18:20:12;;;;;;;85.23;76.47;;;;;;;6.07;100.00;103714.77;2003606;71;32931;-75
2022/01/18 18:25:56;;;;;;;86.30;77.30;;;;;;;6.08;100.00;103713.69;2002739;71;33296;-77
2022/01/18 18:31:43;;;;;;;81.00;72.80;;;;;;;6.19;100.00;103704.47;2000486;71;32936;-81
2022/01/18 18:37:32;;;;;;;87.03;78.73;;;;;;;6.22;100.00;103700.47;2013460;71;33461;-83
2022/01/18 18:43:30;;;;;;;86.30;77.90;;;;;;;6.14;100.00;103713.83;1995650;71;33029;-84
2022/01/18 18:49:16;;;;;;;82.00;73.57;;;;;;;6.30;100.00;103737.13;2008044;70;32832;-75
2022/01/18 18:55:00;;;;;;;84.00;75.47;;;;;;;6.32;100.00;103745.24;2006086;71;32772;-74
2022/01/18 19:00:50;;;;;;;77.97;70.33;;;;;;;6.10;100.00;103746.98;2002464;71;33290;-73
2022/01/18 19:06:37;;;;;;;85.10;76.70;;;;;;;6.09;100.00;103751.30;2006191;71;32760;-81
2022/01/18 19:12:22;;;;;;;78.03;70.70;;;;;;;6.04;100.00;103757.36;2003914;71;32825;-75
2022/01/18 19:18:06;;;;;;;75.57;67.87;;;;;;;6.06;100.00;103749.78;2006007;71;32877;-79
2022/01/18 19:23:51;;;;;;;79.83;71.37;;;;;;;6.10;100.00;103759.92;1995401;71;33253;-78
2022/01/18 19:29:35;;;;;;;78.43;70.43;;;;;;;6.07;100.00;103741.84;2006349;71;32755;-81
2022/01/18 19:35:24;;;;;;;83.43;75.10;;;;;;;6.14;100.00;103740.56;2013816;71;32852;-77
2022/01/18 19:41:09;;;;;;;81.83;73.70;;;;;;;6.13;100.00;103732.80;1998634;71;32903;-75
2022/01/18 19:46:53;;;;;;;77.40;69.63;;;;;;;6.15;100.00;103732.11;2003001;71;33403;-81
2022/01/18 19:52:40;;;;;;;80.70;72.53;;;;;;;5.99;100.00;103719.80;2000725;71;32891;-81
2022/01/18 19:58:26;;;;;;;79.13;71.57;;;;;;;6.06;100.00;103715.80;2013475;71;32863;-74
2022/01/18 20:04:12;;;;;;;82.70;74.87;;;;;;;6.06;100.00;103714.42;2014743;71;32906;-72
2022/01/18 20:09:58;;;;;;;79.53;71.90;;;;;;;6.00;100.00;103702.21;2002773;71;32845;-74
2022/01/18 20:15:42;;;;;;;80.50;72.47;;;;;;;5.97;100.00;103698.45;2003545;71;32896;-78
2022/01/18 20:21:26;;;;;;;82.43;73.93;;;;;;;6.10;100.00;103689.55;2007656;71;33319;-78
2022/01/18 20:27:17;;;;;;;83.83;74.63;;;;;;;6.21;100.00;103689.08;1995188;71;33251;-75
2022/01/18 20:33:00;;;;;;;83.07;74.33;;;;;;;6.24;100.00;103690.11;2009763;71;32828;-79
2022/01/18 20:38:47;;;;;;;85.30;76.07;;;;;;;6.29;100.00;103662.80;1999108;71;32796;-78
2022/01/18 20:44:31;;;;;;;84.30;75.87;;;;;;;6.25;100.00;103649.87;2009010;71;33021;-77
2022/01/18 20:50:16;;;;;;;81.73;73.40;;;;;;;6.15;100.00;103648.45;2005795;71;32847;-77
2022/01/18 20:56:04;;;;;;;83.77;75.00;;;;;;;6.31;100.00;103638.61;2005930;71;33037;-73
2022/01/18 21:01:51;;;;;;;80.20;71.93;;;;;;;6.37;100.00;103626.83;2016811;71;32932;-79
2022/01/18 21:07:39;;;;;;;90.23;81.33;;;;;;;6.47;100.00;103619.61;2013908;71;33316;-78
2022/01/18 21:13:25;;;;;;;82.83;74.37;;;;;;;6.36;100.00;103614.92;1995643;71;32795;-77
2022/01/18 21:19:09;;;;;;;89.00;80.20;;;;;;;6.33;100.00;103606.17;2002450;70;32851;-76
2022/01/18 21:24:54;;;;;;;96.87;87.13;;;;;;;6.36;100.00;103601.12;2018652;71;32960;-76
2022/01/18 21:30:47;;;;;;;93.10;83.77;;;;;;;6.46;100.00;103588.94;2014818;71;33403;-81
2022/01/18 21:36:31;;;;;;;94.40;85.40;;;;;;;6.39;100.00;103561.21;1997447;71;33342;-78
2022/01/18 21:42:15;;;;;;;96.00;86.27;;;;;;;6.42;100.00;103550.33;1991549;71;32809;-78
2022/01/18 21:48:00;;;;;;;90.43;81.27;;;;;;;6.39;100.00;103544.64;2011746;70;32861;-70
2022/01/18 21:53:45;;;;;;;96.67;87.17;;;;;;;6.43;100.00;103535.45;2004707;71;33015;-76
2022/01/18 21:59:31;;;;;;;93.70;85.07;;;;;;;6.44;100.00;103534.41;2009674;71;32962;-74
2022/01/18 22:05:16;;;;;;;93.07;83.90;;;;;;;6.47;100.00;103531.25;1965010;72;33059;-73
2022/01/18 22:11:01;;;;;;;93.60;84.77;;;;;;;6.38;100.00;103521.70;2000611;71;32821;-75
2022/01/18 22:16:45;;;;;;;93.30;84.37;;;;;;;6.35;100.00;103512.44;2014456;71;33378;-74
2022/01/18 22:22:31;;;;;;;90.57;82.23;;;;;;;6.35;100.00;103518.47;1998297;71;32954;-73
2022/01/18 22:28:15;;;;;;;89.77;80.90;;;;;;;6.51;100.00;103513.25;2011013;71;32929;-74
2022/01/18 22:34:01;;;;;;;91.43;83.20;;;;;;;6.36;100.00;103491.20;2000268;71;32845;-75
2022/01/18 22:39:46;;;;;;;94.87;86.03;;;;;;;6.38;100.00;103484.42;1998278;70;32955;-77
2022/01/18 22:45:29;;;;;;;95.50;86.13;;;;;;;6.44;100.00;103475.05;2003941;71;33307;-74
2022/01/18 22:51:14;;;;;;;92.40;83.73;;;;;;;6.42;100.00;103468.33;2009107;71;32840;-74
2022/01/18 22:56:58;;;;;;;84.17;75.87;;;;;;;6.44;100.00;103468.14;2012780;71;32912;-75
2022/01/18 23:02:43;;;;;;;88.33;79.33;;;;;;;6.35;100.00;103456.36;2016818;71;32843;-77
2022/01/18 23:08:30;;;;;;;88.50;80.20;;;;;;;6.50;100.00;103464.63;2011340;71;32803;-78
2022/01/18 23:14:15;;;;;;;80.33;72.43;;;;;;;6.43;100.00;103452.09;2009732;71;32947;-77
2022/01/18 23:19:59;;;;;;;79.97;72.30;;;;;;;6.46;100.00;103450.31;1999235;71;33292;-77
2022/01/18 23:25:43;;;;;;;80.93;72.97;;;;;;;6.35;100.00;103440.65;2009870;71;33330;-77
2022/01/18 23:31:28;;;;;;;79.27;72.10;;;;;;;6.46;100.00;103434.30;2012957;71;33339;-75
2022/01/18 23:37:13;;;;;;;81.13;73.37;;;;;;;6.34;100.00;103437.55;1998433;71;32830;-73
2022/01/18 23:42:58;;;;;;;80.17;72.47;;;;;;;6.26;100.00;103430.77;2016941;71;32820;-74
2022/01/18 23:48:42;;;;;;;79.47;71.87;;;;;;;6.25;100.00;103422.67;2011521;71;32763;-75
2022/01/18 23:54:30;;;;;;;79.67;72.40;;;;;;;6.38;100.00;103415.92;1995203;71;32871;-75
